Portada
METAR-TAF:

METAR-TAF

Aeroports :

Ahwaz, Iran

latitud: 31-20N, longitud: 048-40E, altitud: 20 m

Observació

L'informe es va fer fa 32 minuts, a les 02:00 UTC
Vent 2 kt del Est
Temperatura 15°C
Humitat 77%
Pressió 1018 hPa
Visibilitat: 7000 m
Escasses núvols a una alçada de 4500 ft

METAR: OIAW 230200Z 09002KT 7000 FEW045 15/11 Q1018

Hora: 06:02 (02:32 UTC)

Pronòstic

L'informe es va fer fa 3 hores i 32 minuts, a les 23:00 UTC
Pronòstic vàlid del 23 a les 00 UTC al 24 a les 06 UTC
Vent 6 kt del Sud-Est
Visibilitat: 6000 m
Escasses núvols a una alçada de 4000 ft
Temporalment
l' 23 a les 01 UTC al 23 a les 06 UTC
Visibilitat: 4000 m
Temporalment
l' 24 a les 00 UTC al 24 a les 06 UTC
Visibilitat: 4000 m
calitja

TAF: OIAW 222300Z 2300/2406 14006KT 6000 FEW040 TEMPO 2301/2306 4000 HZ/BR TEMPO 2400/2406 4000 HZ

Observacions i pronòstics meteorològics de més de 4000 aeroports (METAR i TAF).

Les estacions disponibles són els punts grocs i vermells al mapa.

Posi el ratolí al punt desitjat per veure el nom de l'estació.

Feu clic per veure les observacions i els pronòstics meteorològics.

Per canviar el mapa: feu clic els botons verds amb una creu de color negre per apropar; al botó verd amb un guió per allunyar la imatge; o en les fletxes verdes per a mapes adjacents.


METAR-TAF: